Time;durP1;ratioP1;P1;durP2;ratioP2;P2;SDS_P1;SDS_P2;PMS_P1;PMS_P2;Temp;Humidity;BMP_temperature;BMP_pressure;BME280_temperature;BME280_humidity;BME280_pressure;Samples;Min_cycle;Max_cycle;Signal;HPM_P1;HPM_P2
2023/05/13 00:01:40;;;;;;;3.38;3.08;;;;;;;;;;5015831;28;20096;-58
2023/05/13 00:04:07;;;;;;;3.20;2.88;;;;;;;;;;5015280;28;20037;-58
2023/05/13 00:06:33;;;;;;;3.35;3.00;;;;;;;;;;5015660;28;20029;-58
2023/05/13 00:08:58;;;;;;;5.40;2.70;;;;;;;;;;5015717;28;20034;-58
2023/05/13 00:11:24;;;;;;;4.70;3.20;;;;;;;;;;4997976;28;20075;-58
2023/05/13 00:13:49;;;;;;;5.07;3.38;;;;;;;;;;5015353;28;20062;-58
2023/05/13 00:16:15;;;;;;;4.72;3.10;;;;;;;;;;5015327;28;20033;-58
2023/05/13 00:18:40;;;;;;;3.20;2.90;;;;;;;;;;5015223;28;20022;-58
2023/05/13 00:21:06;;;;;;;3.10;2.85;;;;;;;;;;5015555;28;20030;-58
2023/05/13 00:23:31;;;;;;;4.40;3.35;;;;;;;;;;4998031;28;20050;-58
2023/05/13 00:25:57;;;;;;;3.65;3.28;;;;;;;;;;5015208;28;20021;-58
2023/05/13 00:28:23;;;;;;;4.47;2.90;;;;;;;;;;5014860;28;20384;-58
2023/05/13 00:30:48;;;;;;;3.03;2.80;;;;;;;;;;4997505;28;20069;-58
2023/05/13 00:33:14;;;;;;;3.08;2.88;;;;;;;;;;5015355;28;20100;-58
2023/05/13 00:35:40;;;;;;;3.30;2.85;;;;;;;;;;4997111;28;20038;-58
2023/05/13 00:38:06;;;;;;;3.70;3.00;;;;;;;;;;5014480;28;20431;-58
2023/05/13 00:40:32;;;;;;;5.35;3.30;;;;;;;;;;5014682;28;20045;-58
2023/05/13 00:42:58;;;;;;;4.38;3.10;;;;;;;;;;4997525;28;20372;-58
2023/05/13 00:45:23;;;;;;;4.80;3.25;;;;;;;;;;5014912;28;20112;-58
2023/05/13 00:47:49;;;;;;;3.25;3.00;;;;;;;;;;5014533;28;20054;-58
2023/05/13 00:50:14;;;;;;;7.57;3.65;;;;;;;;;;4997071;28;20372;-58
2023/05/13 00:52:40;;;;;;;4.63;3.25;;;;;;;;;;5014957;28;20113;-58
2023/05/13 00:55:07;;;;;;;3.22;2.92;;;;;;;;;;4996950;28;20038;-58
2023/05/13 00:57:32;;;;;;;4.05;3.35;;;;;;;;;;4997572;28;20431;-58
2023/05/13 00:59:58;;;;;;;3.47;3.10;;;;;;;;;;5014539;28;20072;-58
2023/05/13 01:02:37;;;;;;;3.30;2.83;;;;;;;;;;5014551;28;20033;-59
2023/05/13 01:05:10;;;;;;;3.95;2.90;;;;;;;;;;5014548;28;20419;-58
2023/05/13 01:07:54;;;;;;;3.15;2.83;;;;;;;;;;5014870;28;20456;-58
2023/05/13 01:10:28;;;;;;;3.03;2.83;;;;;;;;;;4996927;28;20080;-58
2023/05/13 01:12:59;;;;;;;6.55;3.83;;;;;;;;;;4996511;28;20582;-59
2023/05/13 01:15:25;;;;;;;3.80;3.40;;;;;;;;;;4996508;28;20069;-58
2023/05/13 01:18:04;;;;;;;4.47;3.65;;;;;;;;;;5014426;28;20044;-59
2023/05/13 01:20:29;;;;;;;5.35;3.35;;;;;;;;;;4996859;28;20076;-60
2023/05/13 01:22:55;;;;;;;3.38;3.08;;;;;;;;;;4997077;28;20014;-60
2023/05/13 01:25:21;;;;;;;4.15;3.30;;;;;;;;;;4996619;28;20468;-59
2023/05/13 01:27:48;;;;;;;3.50;3.20;;;;;;;;;;4996354;28;20026;-59
2023/05/13 01:30:15;;;;;;;4.63;3.03;;;;;;;;;;4996908;28;20472;-59
2023/05/13 01:32:41;;;;;;;6.35;3.38;;;;;;;;;;4996433;28;20055;-57
2023/05/13 01:35:07;;;;;;;4.13;3.08;;;;;;;;;;4996250;28;20041;-57
2023/05/13 01:37:37;;;;;;;4.03;3.53;;;;;;;;;;4996366;28;20543;-58
2023/05/13 01:40:06;;;;;;;3.47;3.17;;;;;;;;;;4996292;28;20081;-58
2023/05/13 01:42:33;;;;;;;3.47;3.17;;;;;;;;;;4996251;28;20437;-58
2023/05/13 01:44:58;;;;;;;4.75;2.90;;;;;;;;;;4996708;28;20057;-58
2023/05/13 01:47:23;;;;;;;6.35;3.10;;;;;;;;;;5014047;28;20148;-58
2023/05/13 01:49:49;;;;;;;4.25;3.20;;;;;;;;;;5000382;28;20030;-57
2023/05/13 01:52:14;;;;;;;7.95;3.38;;;;;;;;;;5000518;28;20029;-58
2023/05/13 01:54:40;;;;;;;4.05;3.58;;;;;;;;;;5000507;28;20030;-58
2023/05/13 01:57:09;;;;;;;5.75;3.72;;;;;;;;;;5000712;28;20022;-57
2023/05/13 01:59:34;;;;;;;7.28;3.10;;;;;;;;;;5000634;28;20030;-58
2023/05/13 02:02:00;;;;;;;7.75;3.60;;;;;;;;;;4983743;28;20163;-57
2023/05/13 02:04:26;;;;;;;4.65;3.55;;;;;;;;;;5000023;28;20033;-58
2023/05/13 02:06:51;;;;;;;6.47;3.53;;;;;;;;;;5000017;28;20026;-58
2023/05/13 02:09:17;;;;;;;4.32;3.17;;;;;;;;;;5000596;28;20203;-58
2023/05/13 02:11:43;;;;;;;4.00;3.42;;;;;;;;;;5000185;28;20384;-58
2023/05/13 02:14:10;;;;;;;3.03;2.83;;;;;;;;;;4999796;28;20489;-58
2023/05/13 02:16:35;;;;;;;4.45;3.20;;;;;;;;;;5017921;28;20030;-58
2023/05/13 02:19:04;;;;;;;5.28;4.10;;;;;;;;;;4999633;28;20022;-57
2023/05/13 02:21:30;;;;;;;4.72;3.63;;;;;;;;;;4999671;28;20384;-58
2023/05/13 02:23:55;;;;;;;6.10;3.58;;;;;;;;;;4984107;28;20108;-58
2023/05/13 02:26:21;;;;;;;5.13;3.53;;;;;;;;;;5017947;28;20034;-58
2023/05/13 02:28:46;;;;;;;6.35;3.70;;;;;;;;;;4999691;28;20484;-58
2023/05/13 02:31:12;;;;;;;6.63;3.63;;;;;;;;;;4999885;28;20156;-57
2023/05/13 02:33:37;;;;;;;3.55;3.25;;;;;;;;;;5017168;28;20041;-57
2023/05/13 02:36:03;;;;;;;4.47;3.60;;;;;;;;;;5017302;28;20476;-57
2023/05/13 02:38:28;;;;;;;6.03;3.60;;;;;;;;;;5017410;28;20022;-58
2023/05/13 02:40:54;;;;;;;4.10;3.80;;;;;;;;;;4999153;28;20419;-57
2023/05/13 02:43:20;;;;;;;5.35;3.58;;;;;;;;;;4999448;28;20026;-57
2023/05/13 02:45:54;;;;;;;5.40;3.85;;;;;;;;;;4984151;28;20026;-57
2023/05/13 02:48:19;;;;;;;4.65;4.00;;;;;;;;;;5017197;28;20080;-57
2023/05/13 02:50:45;;;;;;;4.15;3.60;;;;;;;;;;4999127;28;20038;-58
2023/05/13 02:53:10;;;;;;;5.55;4.00;;;;;;;;;;4999519;28;20030;-58
2023/05/13 02:55:40;;;;;;;5.57;4.32;;;;;;;;;;4999558;28;20022;-58
2023/05/13 02:58:07;;;;;;;4.93;3.90;;;;;;;;;;5017315;28;20030;-57
2023/05/13 03:00:33;;;;;;;4.15;3.75;;;;;;;;;;4998732;28;20117;-57
2023/05/13 03:02:58;;;;;;;5.07;3.65;;;;;;;;;;4998852;28;20450;-57
2023/05/13 03:05:23;;;;;;;4.88;3.90;;;;;;;;;;4998900;28;20539;-57
2023/05/13 03:07:49;;;;;;;4.38;3.97;;;;;;;;;;5016676;28;20022;-57
2023/05/13 03:10:14;;;;;;;5.00;3.90;;;;;;;;;;4998741;28;20539;-57
2023/05/13 03:12:40;;;;;;;4.40;3.75;;;;;;;;;;4998854;28;20089;-58
2023/05/13 03:15:05;;;;;;;4.07;3.67;;;;;;;;;;4999050;28;20034;-58
2023/05/13 03:17:32;;;;;;;4.72;3.95;;;;;;;;;;4998987;28;20128;-57
2023/05/13 03:19:58;;;;;;;5.18;3.90;;;;;;;;;;4998535;28;20037;-57
2023/05/13 03:22:24;;;;;;;4.97;4.10;;;;;;;;;;4998995;28;20105;-57
2023/05/13 03:24:49;;;;;;;4.28;3.88;;;;;;;;;;4999022;28;20022;-57
2023/05/13 03:27:15;;;;;;;4.30;3.92;;;;;;;;;;4998719;28;20033;-57
2023/05/13 03:29:41;;;;;;;5.05;3.47;;;;;;;;;;4998990;28;20117;-57
2023/05/13 03:32:07;;;;;;;4.70;3.80;;;;;;;;;;4999186;28;20123;-57
2023/05/13 03:34:35;;;;;;;5.45;3.80;;;;;;;;;;4998341;28;20399;-57
2023/05/13 03:37:01;;;;;;;6.35;3.70;;;;;;;;;;4998545;28;20033;-57
2023/05/13 03:39:28;;;;;;;5.05;3.60;;;;;;;;;;4998443;28;20579;-57
2023/05/13 03:41:53;;;;;;;5.25;3.30;;;;;;;;;;4998622;28;20113;-57
2023/05/13 03:44:19;;;;;;;4.07;3.67;;;;;;;;;;4998187;28;20049;-57
2023/05/13 03:46:44;;;;;;;4.47;3.75;;;;;;;;;;4998475;28;20380;-57
2023/05/13 03:49:10;;;;;;;4.90;3.75;;;;;;;;;;4998727;28;20018;-57
2023/05/13 03:51:35;;;;;;;4.70;3.53;;;;;;;;;;4998705;28;20072;-57
2023/05/13 03:54:01;;;;;;;4.15;3.80;;;;;;;;;;4998160;28;20444;-58
2023/05/13 03:56:26;;;;;;;4.13;3.72;;;;;;;;;;4997860;28;20385;-57
2023/05/13 03:58:52;;;;;;;4.47;4.07;;;;;;;;;;4998621;28;20033;-57
2023/05/13 04:01:17;;;;;;;5.03;3.80;;;;;;;;;;5015590;28;20040;-58
2023/05/13 04:03:45;;;;;;;4.13;3.78;;;;;;;;;;4997723;28;20117;-58
2023/05/13 04:06:10;;;;;;;4.10;3.58;;;;;;;;;;5015491;28;20022;-58
2023/05/13 04:08:36;;;;;;;10.05;3.60;;;;;;;;;;4997753;28;20080;-58
2023/05/13 04:11:01;;;;;;;4.18;3.78;;;;;;;;;;5014681;28;20034;-58
2023/05/13 04:13:27;;;;;;;5.75;4.20;;;;;;;;;;5015351;28;20045;-59
2023/05/13 04:15:54;;;;;;;4.00;3.60;;;;;;;;;;5015764;28;20033;-59
2023/05/13 04:18:20;;;;;;;3.70;3.40;;;;;;;;;;4981565;28;20040;-58
2023/05/13 04:20:45;;;;;;;5.97;3.92;;;;;;;;;;4997468;28;20025;-58
2023/05/13 04:23:10;;;;;;;5.30;3.92;;;;;;;;;;5015556;28;20480;-58
2023/05/13 04:25:36;;;;;;;4.15;3.72;;;;;;;;;;5015771;28;20026;-58
2023/05/13 04:28:01;;;;;;;3.72;3.28;;;;;;;;;;4997200;28;20479;-58
2023/05/13 04:30:30;;;;;;;4.10;3.60;;;;;;;;;;4998106;28;20088;-62
2023/05/13 04:32:56;;;;;;;4.63;4.00;;;;;;;;;;4997421;28;20404;-59
2023/05/13 04:35:21;;;;;;;4.80;3.53;;;;;;;;;;4997143;28;20443;-56
2023/05/13 04:37:51;;;;;;;5.57;3.95;;;;;;;;;;4997940;28;20116;-56
2023/05/13 04:40:18;;;;;;;5.47;3.53;;;;;;;;;;4996659;28;20050;-56
2023/05/13 04:42:45;;;;;;;5.00;3.78;;;;;;;;;;4996068;28;20550;-56
2023/05/13 04:45:10;;;;;;;5.97;3.83;;;;;;;;;;4996222;28;20022;-57
2023/05/13 04:47:36;;;;;;;4.10;3.67;;;;;;;;;;4996254;28;20499;-57
2023/05/13 04:50:02;;;;;;;5.50;4.07;;;;;;;;;;4996863;28;20029;-56
2023/05/13 04:52:28;;;;;;;5.75;4.05;;;;;;;;;;4996575;28;20396;-56
2023/05/13 04:54:54;;;;;;;12.75;4.15;;;;;;;;;;4996296;28;20033;-57
2023/05/13 04:57:19;;;;;;;4.05;3.75;;;;;;;;;;4996577;28;20460;-56
2023/05/13 04:59:46;;;;;;;4.10;3.70;;;;;;;;;;4996520;28;20068;-57
2023/05/13 05:02:12;;;;;;;4.35;3.92;;;;;;;;;;4996427;28;20092;-57
2023/05/13 05:04:37;;;;;;;3.80;3.50;;;;;;;;;;4996495;28;20027;-58
2023/05/13 05:07:08;;;;;;;3.90;3.38;;;;;;;;;;4996627;28;20478;-57
2023/05/13 05:09:34;;;;;;;4.70;3.75;;;;;;;;;;5013922;28;20160;-57
2023/05/13 05:11:59;;;;;;;4.40;3.40;;;;;;;;;;4995848;28;20053;-57
2023/05/13 05:14:27;;;;;;;3.70;3.30;;;;;;;;;;5013933;28;20021;-57
2023/05/13 05:16:53;;;;;;;3.33;3.10;;;;;;;;;;4996144;28;20041;-57
2023/05/13 05:19:22;;;;;;;4.10;2.97;;;;;;;;;;4995865;28;20033;-58
2023/05/13 05:21:51;;;;;;;2.80;2.60;;;;;;;;;;5013538;28;20693;-57
2023/05/13 05:24:17;;;;;;;3.42;2.72;;;;;;;;;;4995256;28;20260;-58
2023/05/13 05:26:42;;;;;;;2.72;2.53;;;;;;;;;;4995829;28;20032;-57
2023/05/13 05:29:08;;;;;;;2.40;2.30;;;;;;;;;;4994290;28;20057;-57
2023/05/13 05:31:34;;;;;;;2.88;2.35;;;;;;;;;;4994727;28;20081;-57
2023/05/13 05:34:01;;;;;;;2.05;1.90;;;;;;;;;;4994725;28;20014;-58
2023/05/13 05:36:27;;;;;;;3.55;2.30;;;;;;;;;;4994932;28;20523;-58
2023/05/13 05:38:53;;;;;;;8.70;2.42;;;;;;;;;;4994705;28;20085;-57
2023/05/13 05:41:20;;;;;;;4.85;2.22;;;;;;;;;;4994872;28;20431;-58
2023/05/13 05:43:46;;;;;;;1.83;1.73;;;;;;;;;;4994908;28;20044;-58
2023/05/13 05:46:12;;;;;;;3.53;2.22;;;;;;;;;;5013279;28;20460;-58
2023/05/13 05:48:37;;;;;;;3.53;2.35;;;;;;;;;;4995819;28;20033;-57
2023/05/13 05:51:03;;;;;;;2.50;2.13;;;;;;;;;;4995508;28;20030;-57
2023/05/13 05:53:31;;;;;;;3.13;2.20;;;;;;;;;;4996088;28;20033;-57
2023/05/13 05:55:56;;;;;;;3.00;2.40;;;;;;;;;;4979820;28;20037;-57
2023/05/13 05:58:22;;;;;;;2.53;2.33;;;;;;;;;;5013567;28;20380;-57
2023/05/13 06:00:47;;;;;;;2.30;2.00;;;;;;;;;;4995753;28;20479;-57
2023/05/13 06:03:12;;;;;;;7.20;2.63;;;;;;;;;;5013170;28;20039;-58
2023/05/13 06:05:38;;;;;;;2.20;1.98;;;;;;;;;;4995677;28;20041;-58
2023/05/13 06:08:03;;;;;;;7.47;2.33;;;;;;;;;;4995807;28;20030;-57
2023/05/13 06:10:29;;;;;;;3.03;2.78;;;;;;;;;;4995333;28;20022;-57
2023/05/13 06:12:54;;;;;;;2.50;2.30;;;;;;;;;;5013021;28;20096;-57
2023/05/13 06:15:20;;;;;;;3.10;2.83;;;;;;;;;;4995575;28;20022;-60
2023/05/13 06:17:45;;;;;;;4.50;2.10;;;;;;;;;;5012451;28;20424;-58
2023/05/13 06:20:11;;;;;;;2.67;2.47;;;;;;;;;;4995260;28;20652;-58
2023/05/13 06:22:36;;;;;;;1.92;1.60;;;;;;;;;;5013159;28;20113;-58
2023/05/13 06:25:01;;;;;;;3.08;2.78;;;;;;;;;;5013258;28;20068;-58
2023/05/13 06:27:27;;;;;;;3.55;2.45;;;;;;;;;;5011171;28;20030;-58
2023/05/13 06:29:52;;;;;;;2.72;2.53;;;;;;;;;;5011531;28;20114;-58
2023/05/13 06:32:18;;;;;;;2.55;2.33;;;;;;;;;;5011251;28;20041;-58
2023/05/13 06:34:44;;;;;;;2.90;2.58;;;;;;;;;;5013391;28;20017;-57
2023/05/13 06:37:12;;;;;;;3.20;2.70;;;;;;;;;;5016315;28;20037;-57
2023/05/13 06:39:38;;;;;;;2.70;2.20;;;;;;;;;;4998641;28;20046;-57
2023/05/13 06:42:04;;;;;;;2.58;2.30;;;;;;;;;;4998764;28;20621;-57
2023/05/13 06:44:32;;;;;;;3.38;2.80;;;;;;;;;;4998959;28;20017;-57
2023/05/13 06:46:57;;;;;;;3.13;2.80;;;;;;;;;;4998768;28;20160;-57
2023/05/13 06:49:25;;;;;;;3.00;2.10;;;;;;;;;;5016526;28;20434;-57
2023/05/13 06:51:52;;;;;;;2.55;2.40;;;;;;;;;;4981603;28;20034;-57
2023/05/13 06:54:17;;;;;;;3.33;2.83;;;;;;;;;;4998613;28;20038;-57
2023/05/13 06:56:42;;;;;;;3.08;2.75;;;;;;;;;;5015999;28;20157;-65
2023/05/13 06:59:08;;;;;;;5.50;2.47;;;;;;;;;;5016010;28;20786;-65
2023/05/13 07:01:33;;;;;;;7.15;2.90;;;;;;;;;;5015850;28;20022;-65
2023/05/13 07:03:58;;;;;;;2.53;2.33;;;;;;;;;;5015744;28;20061;-65
2023/05/13 07:06:24;;;;;;;2.83;2.50;;;;;;;;;;4998557;28;20419;-65
2023/05/13 07:08:49;;;;;;;1.88;1.77;;;;;;;;;;5016374;28;20033;-65
2023/05/13 07:11:23;;;;;;;2.33;2.13;;;;;;;;;;4999051;28;20030;-65
2023/05/13 07:13:48;;;;;;;4.47;2.15;;;;;;;;;;5016548;28;20498;-65
2023/05/13 07:16:14;;;;;;;2.20;2.00;;;;;;;;;;5015045;28;20034;-64
2023/05/13 07:18:39;;;;;;;4.15;2.60;;;;;;;;;;5015434;28;20076;-65
2023/05/13 07:21:05;;;;;;;5.38;2.28;;;;;;;;;;5015874;28;20357;-65
2023/05/13 07:23:31;;;;;;;4.28;2.30;;;;;;;;;;5015919;28;20457;-66
2023/05/13 07:25:56;;;;;;;2.67;2.22;;;;;;;;;;5015818;28;20033;-66
2023/05/13 07:28:21;;;;;;;5.15;2.60;;;;;;;;;;5015567;28;20560;-66
2023/05/13 07:30:47;;;;;;;2.33;2.08;;;;;;;;;;5015522;28;20480;-65
2023/05/13 07:33:12;;;;;;;2.40;2.22;;;;;;;;;;5016192;28;20014;-65
2023/05/13 07:35:38;;;;;;;2.38;2.17;;;;;;;;;;5015655;28;20033;-58
2023/05/13 07:38:03;;;;;;;3.70;2.08;;;;;;;;;;5016556;28;20469;-58
2023/05/13 07:40:29;;;;;;;3.45;2.40;;;;;;;;;;5016180;28;20045;-58
2023/05/13 07:42:54;;;;;;;5.55;2.20;;;;;;;;;;5016284;28;20064;-58
2023/05/13 07:45:19;;;;;;;2.55;1.85;;;;;;;;;;5015930;28;20026;-58
2023/05/13 07:47:45;;;;;;;2.63;1.88;;;;;;;;;;5015440;28;20033;-58
2023/05/13 07:50:10;;;;;;;2.13;1.90;;;;;;;;;;4997960;28;20483;-58
2023/05/13 07:52:36;;;;;;;4.78;1.83;;;;;;;;;;5015295;28;20057;-58
2023/05/13 07:55:01;;;;;;;2.65;1.88;;;;;;;;;;5015883;28;20056;-58
2023/05/13 07:57:27;;;;;;;1.88;1.67;;;;;;;;;;5015242;28;20037;-58
2023/05/13 07:59:53;;;;;;;5.43;2.63;;;;;;;;;;5015420;28;20030;-58
2023/05/13 08:02:18;;;;;;;4.03;2.30;;;;;;;;;;4997352;28;20018;-58
2023/05/13 08:04:44;;;;;;;2.88;2.00;;;;;;;;;;4998135;28;20030;-58
2023/05/13 08:07:10;;;;;;;4.15;2.60;;;;;;;;;;4982034;28;20450;-58
2023/05/13 08:09:35;;;;;;;2.88;2.00;;;;;;;;;;5015686;28;20369;-58
2023/05/13 08:12:01;;;;;;;3.08;2.00;;;;;;;;;;4998135;28;20060;-58
2023/05/13 08:14:26;;;;;;;1.80;1.70;;;;;;;;;;5015018;28;20037;-58
2023/05/13 08:16:51;;;;;;;2.72;1.80;;;;;;;;;;4997637;28;20022;-66
2023/05/13 08:19:17;;;;;;;1.70;1.60;;;;;;;;;;5015042;28;20144;-66
2023/05/13 08:21:42;;;;;;;2.38;2.17;;;;;;;;;;5014728;28;20079;-65
2023/05/13 08:24:07;;;;;;;2.28;1.70;;;;;;;;;;5015521;28;20036;-66
2023/05/13 08:26:33;;;;;;;2.03;1.92;;;;;;;;;;4997771;28;20050;-66
2023/05/13 08:28:59;;;;;;;3.90;2.08;;;;;;;;;;5015257;28;20478;-66
2023/05/13 08:31:24;;;;;;;2.72;2.50;;;;;;;;;;4997280;28;20040;-66
2023/05/13 08:33:52;;;;;;;2.58;1.90;;;;;;;;;;5014978;28;20515;-66
2023/05/13 08:36:18;;;;;;;2.65;2.10;;;;;;;;;;5015137;28;20033;-66
2023/05/13 08:38:43;;;;;;;2.33;1.85;;;;;;;;;;5015108;28;20080;-65
2023/05/13 08:41:11;;;;;;;2.15;1.75;;;;;;;;;;5014759;28;20025;-66
2023/05/13 08:43:37;;;;;;;3.17;1.95;;;;;;;;;;5015263;28;20113;-66
2023/05/13 08:46:03;;;;;;;4.72;3.08;;;;;;;;;;5014951;28;20417;-66
2023/05/13 08:48:30;;;;;;;3.28;2.10;;;;;;;;;;5014976;28;20025;-66
2023/05/13 08:50:56;;;;;;;3.92;2.60;;;;;;;;;;4997356;28;20041;-65
2023/05/13 08:53:23;;;;;;;1.77;1.67;;;;;;;;;;5014957;28;20038;-66
2023/05/13 08:55:50;;;;;;;6.07;4.13;;;;;;;;;;5014714;28;20042;-66
2023/05/13 08:58:16;;;;;;;3.55;2.20;;;;;;;;;;5013571;28;20033;-66
2023/05/13 09:00:41;;;;;;;2.13;2.03;;;;;;;;;;5014109;28;20036;-66
2023/05/13 09:03:07;;;;;;;3.63;2.40;;;;;;;;;;5013852;28;20034;-66
2023/05/13 09:05:32;;;;;;;1.83;1.73;;;;;;;;;;5014880;28;20034;-66
2023/05/13 09:08:00;;;;;;;2.10;1.95;;;;;;;;;;4996947;28;20053;-66
2023/05/13 09:10:25;;;;;;;4.32;2.50;;;;;;;;;;5013957;28;20504;-66
2023/05/13 09:12:52;;;;;;;2.05;1.88;;;;;;;;;;5013901;28;20038;-66
2023/05/13 09:15:18;;;;;;;4.05;2.10;;;;;;;;;;5014347;28;20033;-66
2023/05/13 09:17:46;;;;;;;2.03;1.92;;;;;;;;;;5013592;28;20030;-66
2023/05/13 09:20:12;;;;;;;2.65;2.00;;;;;;;;;;4996275;28;20036;-66
2023/05/13 09:22:44;;;;;;;2.13;1.77;;;;;;;;;;5013936;28;20028;-66
2023/05/13 09:25:13;;;;;;;6.57;2.60;;;;;;;;;;5014776;28;20108;-66
2023/05/13 09:27:39;;;;;;;1.58;1.40;;;;;;;;;;4996872;28;20045;-66
2023/05/13 09:30:05;;;;;;;2.22;1.73;;;;;;;;;;5013864;28;20116;-66
2023/05/13 09:32:30;;;;;;;2.22;1.88;;;;;;;;;;5013978;28;20105;-66
2023/05/13 09:34:56;;;;;;;1.77;1.60;;;;;;;;;;5013649;28;20401;-66
2023/05/13 09:37:22;;;;;;;3.63;2.45;;;;;;;;;;5013724;28;20117;-66
2023/05/13 09:39:50;;;;;;;3.15;2.22;;;;;;;;;;5013803;28;20481;-66
2023/05/13 09:42:16;;;;;;;0.80;0.80;;;;;;;;;;5014186;28;20113;-66
2023/05/13 09:44:42;;;;;;;2.05;1.92;;;;;;;;;;4995434;28;20440;-66
2023/05/13 09:47:11;;;;;;;1.92;1.80;;;;;;;;;;5002818;28;20022;-66
2023/05/13 09:49:36;;;;;;;2.05;1.88;;;;;;;;;;4996310;28;20352;-66
2023/05/13 09:52:02;;;;;;;5.43;1.67;;;;;;;;;;5011470;28;20040;-65
2023/05/13 09:54:33;;;;;;;4.43;1.80;;;;;;;;;;4987071;28;20427;-66
2023/05/13 09:57:00;;;;;;;1.95;1.50;;;;;;;;;;5012244;28;20138;-66
2023/05/13 09:59:25;;;;;;;2.50;1.67;;;;;;;;;;5013952;28;20377;-66
2023/05/13 10:01:52;;;;;;;2.05;1.63;;;;;;;;;;5013563;28;20034;-66
2023/05/13 10:04:18;;;;;;;5.13;2.22;;;;;;;;;;4995115;28;20014;-66
2023/05/13 10:06:44;;;;;;;4.95;2.50;;;;;;;;;;5012661;28;20530;-66
2023/05/13 10:09:10;;;;;;;1.70;1.60;;;;;;;;;;4994332;28;20471;-65
2023/05/13 10:11:35;;;;;;;1.70;1.60;;;;;;;;;;5017069;28;20030;-66
2023/05/13 10:14:03;;;;;;;1.52;1.23;;;;;;;;;;5016832;28;20034;-66
2023/05/13 10:16:31;;;;;;;2.03;1.83;;;;;;;;;;4999946;28;20033;-66
2023/05/13 10:18:57;;;;;;;3.53;1.85;;;;;;;;;;5017360;28;20026;-66
2023/05/13 10:21:24;;;;;;;1.88;1.70;;;;;;;;;;4983389;28;20041;-66
2023/05/13 10:23:52;;;;;;;2.42;1.77;;;;;;;;;;5017219;28;20030;-65
2023/05/13 10:26:19;;;;;;;2.65;1.80;;;;;;;;;;5017406;28;20030;-67
2023/05/13 10:28:44;;;;;;;2.53;1.83;;;;;;;;;;5016980;28;20040;-65
2023/05/13 10:31:09;;;;;;;4.00;2.03;;;;;;;;;;5017031;28;20050;-66
2023/05/13 10:33:35;;;;;;;6.13;2.13;;;;;;;;;;4983407;28;20057;-66
2023/05/13 10:36:10;;;;;;;2.92;2.55;;;;;;;;;;5017365;28;20036;-66
2023/05/13 10:38:43;;;;;;;2.67;2.47;;;;;;;;;;5017010;28;20025;-65
2023/05/13 10:41:08;;;;;;;2.92;1.63;;;;;;;;;;5017041;28;20037;-66
2023/05/13 10:43:34;;;;;;;2.10;1.88;;;;;;;;;;5017215;28;20076;-66
2023/05/13 10:46:01;;;;;;;4.47;2.00;;;;;;;;;;5017313;28;20081;-66
2023/05/13 10:48:36;;;;;;;2.63;1.92;;;;;;;;;;5016991;28;20026;-66
2023/05/13 10:51:06;;;;;;;2.30;1.80;;;;;;;;;;5016835;28;20037;-66
2023/05/13 10:53:36;;;;;;;3.15;1.85;;;;;;;;;;5016719;28;20105;-66
2023/05/13 10:56:01;;;;;;;5.75;2.35;;;;;;;;;;5016654;28;20037;-66
2023/05/13 10:58:29;;;;;;;12.88;2.70;;;;;;;;;;5016934;28;20034;-66
2023/05/13 11:01:13;;;;;;;4.38;2.40;;;;;;;;;;5016367;28;20388;-67
2023/05/13 11:03:38;;;;;;;3.05;2.03;;;;;;;;;;5016353;28;20034;-66
2023/05/13 11:06:14;;;;;;;3.20;2.25;;;;;;;;;;5016415;28;20024;-66
2023/05/13 11:08:43;;;;;;;3.40;2.40;;;;;;;;;;5016438;28;20030;-66
2023/05/13 11:11:21;;;;;;;3.33;2.45;;;;;;;;;;5016464;28;20112;-65
2023/05/13 11:13:50;;;;;;;2.72;1.90;;;;;;;;;;5016552;28;20091;-66
2023/05/13 11:16:16;;;;;;;2.50;2.17;;;;;;;;;;5016677;28;20030;-66
2023/05/13 11:18:42;;;;;;;1.67;1.58;;;;;;;;;;4998310;28;20034;-66
2023/05/13 11:21:07;;;;;;;3.85;2.08;;;;;;;;;;4999529;28;20110;-66
2023/05/13 11:23:49;;;;;;;5.47;2.15;;;;;;;;;;4996504;28;20069;-65
2023/05/13 11:26:15;;;;;;;2.58;1.90;;;;;;;;;;4996505;28;20486;-66
2023/05/13 11:29:01;;;;;;;6.53;2.75;;;;;;;;;;4996428;28;20477;-66
2023/05/13 11:31:27;;;;;;;5.15;2.13;;;;;;;;;;4996899;28;20037;-65
2023/05/13 11:34:06;;;;;;;6.93;2.15;;;;;;;;;;4996743;28;20782;-66
2023/05/13 11:36:32;;;;;;;7.28;6.60;;;;;;;;;;4996342;28;20381;-66
2023/05/13 11:39:04;;;;;;;2.47;2.08;;;;;;;;;;4996108;28;20101;-66
2023/05/13 11:41:31;;;;;;;2.28;1.92;;;;;;;;;;5013570;28;20096;-58
2023/05/13 11:43:58;;;;;;;2.30;2.03;;;;;;;;;;4998423;28;20510;-58
2023/05/13 11:46:24;;;;;;;4.07;2.03;;;;;;;;;;5016114;28;20026;-58
2023/05/13 11:48:50;;;;;;;3.90;2.13;;;;;;;;;;5016037;28;20021;-58
2023/05/13 11:51:18;;;;;;;5.35;2.58;;;;;;;;;;5015836;28;20483;-58
2023/05/13 11:53:44;;;;;;;4.43;2.22;;;;;;;;;;5016213;28;20433;-58
2023/05/13 11:56:09;;;;;;;2.33;1.98;;;;;;;;;;5015540;28;20069;-58
2023/05/13 11:58:35;;;;;;;2.13;1.83;;;;;;;;;;5015481;28;20034;-58
2023/05/13 12:01:00;;;;;;;2.95;2.10;;;;;;;;;;5015305;28;20491;-58
2023/05/13 12:03:26;;;;;;;3.20;2.25;;;;;;;;;;5015539;28;20025;-58
2023/05/13 12:05:59;;;;;;;2.17;1.98;;;;;;;;;;5015835;28;20395;-58
2023/05/13 12:08:24;;;;;;;5.90;2.42;;;;;;;;;;5015325;28;20034;-58
2023/05/13 12:10:50;;;;;;;3.40;2.15;;;;;;;;;;5015890;28;20048;-58
2023/05/13 12:13:15;;;;;;;3.72;2.10;;;;;;;;;;4997334;28;20026;-58
2023/05/13 12:15:41;;;;;;;11.07;4.07;;;;;;;;;;5010647;28;20042;-58
2023/05/13 12:18:07;;;;;;;2.25;1.88;;;;;;;;;;4995963;28;20034;-58
2023/05/13 12:20:32;;;;;;;7.55;2.30;;;;;;;;;;4995793;28;20050;-58
2023/05/13 12:22:59;;;;;;;3.38;2.05;;;;;;;;;;4995496;28;20034;-58
2023/05/13 12:25:37;;;;;;;5.18;2.08;;;;;;;;;;4994121;28;20037;-58
2023/05/13 12:28:05;;;;;;;1.60;1.50;;;;;;;;;;4995514;28;20069;-58
2023/05/13 12:30:34;;;;;;;5.07;2.13;;;;;;;;;;4995616;28;20081;-58
2023/05/13 12:32:59;;;;;;;6.53;1.92;;;;;;;;;;4994858;28;20062;-59
2023/05/13 12:35:24;;;;;;;4.93;2.10;;;;;;;;;;4978351;28;20430;-59
2023/05/13 12:38:00;;;;;;;3.58;1.55;;;;;;;;;;5009078;28;20029;-66
2023/05/13 12:40:26;;;;;;;2.85;1.80;;;;;;;;;;4966100;28;20397;-67
2023/05/13 12:42:55;;;;;;;5.40;1.88;;;;;;;;;;4977454;28;20039;-67
2023/05/13 12:45:21;;;;;;;2.58;1.92;;;;;;;;;;4977554;28;20030;-67
2023/05/13 12:47:50;;;;;;;1.92;1.48;;;;;;;;;;4977168;28;20080;-67
2023/05/13 12:50:15;;;;;;;2.35;1.98;;;;;;;;;;4994427;28;20034;-66
2023/05/13 12:52:40;;;;;;;1.27;1.17;;;;;;;;;;4976471;28;20038;-67
2023/05/13 12:55:06;;;;;;;7.80;2.03;;;;;;;;;;4976623;28;20038;-67
2023/05/13 12:57:31;;;;;;;3.75;1.73;;;;;;;;;;4976303;28;20026;-66
2023/05/13 12:59:56;;;;;;;5.00;1.67;;;;;;;;;;4976471;28;20117;-67
2023/05/13 13:02:22;;;;;;;6.93;3.40;;;;;;;;;;4987676;28;20037;-66
2023/05/13 13:04:47;;;;;;;3.80;1.92;;;;;;;;;;4986324;28;20069;-67
2023/05/13 13:07:13;;;;;;;2.13;1.90;;;;;;;;;;4974365;28;20027;-67
2023/05/13 13:09:38;;;;;;;2.63;1.40;;;;;;;;;;4974547;28;20145;-66
2023/05/13 13:12:04;;;;;;;1.60;1.50;;;;;;;;;;4979926;28;20501;-59
2023/05/13 13:14:30;;;;;;;2.45;1.40;;;;;;;;;;4993465;28;20038;-59
2023/05/13 14:07:19;;;;;;;11.80;5.35;;;;;;;;;;5165216;27;20486;-63
2023/05/13 14:09:44;;;;;;;4.03;2.42;;;;;;;;;;5131871;27;20054;-63
2023/05/13 14:12:11;;;;;;;2.13;1.42;;;;;;;;;;5131376;27;20486;-63
2023/05/13 14:14:36;;;;;;;1.70;1.60;;;;;;;;;;5132280;27;20396;-62
2023/05/13 14:17:02;;;;;;;2.47;2.05;;;;;;;;;;5116595;27;20035;-62
2023/05/13 14:19:28;;;;;;;4.65;2.72;;;;;;;;;;5130458;28;20549;-63
2023/05/13 14:21:53;;;;;;;1.60;1.50;;;;;;;;;;5131181;27;20022;-63
2023/05/13 14:24:19;;;;;;;2.90;2.05;;;;;;;;;;5131569;27;20503;-63
2023/05/13 14:26:44;;;;;;;2.00;1.80;;;;;;;;;;5118651;28;20038;-64
2023/05/13 14:29:11;;;;;;;2.10;2.00;;;;;;;;;;5110072;28;20055;-63
2023/05/13 14:31:36;;;;;;;1.90;1.80;;;;;;;;;;5110000;28;20027;-63
2023/05/13 14:34:02;;;;;;;4.05;1.80;;;;;;;;;;5109363;28;20028;-63
2023/05/13 14:36:28;;;;;;;3.00;1.80;;;;;;;;;;5109636;28;20067;-63
2023/05/13 14:39:09;;;;;;;2.25;1.75;;;;;;;;;;5143951;27;20020;-63
2023/05/13 14:41:34;;;;;;;3.33;2.58;;;;;;;;;;5110617;28;20032;-63
2023/05/13 14:44:00;;;;;;;2.10;1.90;;;;;;;;;;5103928;28;20501;-64
2023/05/13 14:46:26;;;;;;;2.10;1.88;;;;;;;;;;5108918;28;20039;-63
2023/05/13 14:48:53;;;;;;;2.40;1.95;;;;;;;;;;5107728;28;20031;-63
2023/05/13 14:51:19;;;;;;;2.70;2.50;;;;;;;;;;5106915;28;20028;-63
2023/05/13 14:53:47;;;;;;;2.30;2.10;;;;;;;;;;5109064;28;20467;-63
2023/05/13 14:56:12;;;;;;;3.03;2.08;;;;;;;;;;5109548;28;20125;-63
2023/05/13 14:58:39;;;;;;;6.85;2.55;;;;;;;;;;5109242;28;20102;-63
2023/05/13 15:01:04;;;;;;;2.00;1.90;;;;;;;;;;5109471;28;20019;-63
2023/05/13 15:03:30;;;;;;;2.28;2.08;;;;;;;;;;5109502;28;20027;-63
2023/05/13 15:05:56;;;;;;;2.10;2.00;;;;;;;;;;5109271;28;20131;-63
2023/05/13 15:08:22;;;;;;;4.10;2.00;;;;;;;;;;5095094;28;20575;-63
2023/05/13 15:10:47;;;;;;;3.63;1.70;;;;;;;;;;5128259;27;20067;-63
2023/05/13 15:13:13;;;;;;;4.70;1.92;;;;;;;;;;5075539;28;20467;-63
2023/05/13 15:15:38;;;;;;;2.30;2.20;;;;;;;;;;5128452;27;20032;-63
2023/05/13 15:18:04;;;;;;;2.85;2.65;;;;;;;;;;5095933;28;20032;-63
2023/05/13 15:20:29;;;;;;;2.97;2.00;;;;;;;;;;5095711;28;20036;-63
2023/05/13 15:22:56;;;;;;;3.30;3.10;;;;;;;;;;5128667;27;20060;-63
2023/05/13 15:25:22;;;;;;;2.55;1.83;;;;;;;;;;5095846;28;20028;-63
2023/05/13 15:27:50;;;;;;;2.78;2.47;;;;;;;;;;5094241;28;20390;-60
2023/05/13 15:30:15;;;;;;;2.90;2.22;;;;;;;;;;5094168;28;20120;-61